MiSS Bobbie Fugit — WDC6509 — position and weather

sailwx.info

Track history (hours):
 
Tides and Currents Weather Stations Pressure Air Temp Water Temp Dewpoint Dewpoint Depression Visibility Wind Speed Wind Dir Waves Ship Positions

MiSS Bobbie Fugit

Owner: American Commercial Lines LLC, Jeffersonville, IN. More information available from US FCC via Universal Licensing System and Coast Guard Vessel Documentation Center.

Last reported at 2017-Oct-20 14:53 UTC. Time now 2017-Oct-20 17:52 UTC.
Position N 29°46' W 095°06'.

Length 27 m; draft 3.3 m.

Type: Towing. MMSI: 367057310.

Date/timePositionNaut miles runAvg speedWind from/ knotsBaromVisibWave heightAir tempDewpointWater temp
2017-Oct-20 14:53N 29°46' W 095°06'3 0.4
2017-Oct-20 07:34N 29°44' W 095°03'1 6.3
2017-Oct-20 07:26N 29°44' W 095°02'2 5.0
2017-Oct-20 07:00N 29°42' W 095°01'3 5.9
2017-Oct-20 06:30N 29°40' W 094°58'3 6.6
2017-Oct-20 06:00N 29°37' W 094°57'3 6.5
2017-Oct-20 05:30N 29°34' W 094°55'60 3.8
2017-Oct-19 13:52N 29°57' W 093°52'0 0.2
2017-Oct-19 13:30N 29°57' W 093°52'0 0.0
2017-Oct-19 12:57N 29°57' W 093°52'0 0.0
2017-Oct-19 12:29N 29°57' W 093°52'15 2.7
2017-Oct-19 07:01N 30°04' W 093°37'0 4.6
2017-Oct-19 06:58N 30°04' W 093°36'2 4.5
2017-Oct-19 06:31N 30°04' W 093°34'2 4.5
2017-Oct-19 06:01N 30°04' W 093°31'2 4.4
2017-Oct-19 05:31N 30°04' W 093°29'2 4.3
2017-Oct-19 05:00N 30°04' W 093°26'2 4.3
2017-Oct-19 04:30N 30°04' W 093°24'2 3.8
2017-Oct-19 04:00N 30°04' W 093°22'2 3.6
2017-Oct-19 03:30N 30°05' W 093°20'2 3.5
2017-Oct-19 03:01N 30°06' W 093°19'0 0.1
2017-Oct-19 02:31N 30°06' W 093°19'0 0.1
2017-Oct-19 02:01N 30°06' W 093°19'0 0.1
2017-Oct-19 01:30N 30°06' W 093°19'0 0.1
2017-Oct-19 01:01N 30°06' W 093°19'0 0.1
2017-Oct-19 00:31N 30°06' W 093°19'0 0.0
2017-Oct-19 00:01N 30°06' W 093°19'0 0.0
2017-Oct-18 23:31N 30°06' W 093°19'0 0.1
2017-Oct-18 23:01N 30°06' W 093°19'0 0.1
2017-Oct-18 22:31N 30°06' W 093°19'0 0.0
2017-Oct-18 22:00N 30°06' W 093°19'0 0.0
2017-Oct-18 21:31N 30°06' W 093°19'0 0.0
2017-Oct-18 21:01N 30°06' W 093°19'0 0.0
2017-Oct-18 20:31N 30°06' W 093°19'0 0.0
2017-Oct-18 20:01N 30°06' W 093°19'0 0.0
2017-Oct-18 19:31N 30°06' W 093°19'0 0.0
2017-Oct-18 19:01N 30°06' W 093°19'0 0.0
2017-Oct-18 18:31N 30°06' W 093°19'0 0.0
2017-Oct-18 18:01N 30°06' W 093°19'0 0.0
2017-Oct-18 17:31N 30°06' W 093°19'0 0.0
2017-Oct-18 17:00N 30°06' W 093°19'0 0.0
2017-Oct-18 16:31N 30°06' W 093°19'0 0.0
2017-Oct-18 16:00N 30°06' W 093°19'0 0.3
2017-Oct-18 15:31N 30°06' W 093°19'2 3.5
2017-Oct-18 15:01N 30°05' W 093°20'3 3.1
2017-Oct-18 14:01N 30°04' W 093°24'2 4.7
2017-Oct-18 13:30N 30°04' W 093°26'2 4.6
2017-Oct-18 13:01N 30°04' W 093°29'2 4.8
2017-Oct-18 12:30N 30°04' W 093°32'2 4.7
2017-Oct-18 12:00N 30°04' W 093°35'8 5.1
2017-Oct-18 10:22N 30°02' W 093°44'68 4.0
2017-Oct-17 17:17N 29°31' W 094°53'2 6.6
2017-Oct-17 17:00N 29°32' W 094°54'3 6.8
2017-Oct-17 16:31N 29°35' W 094°56'3 6.7
2017-Oct-17 16:01N 29°38' W 094°58'3 6.7
2017-Oct-17 15:31N 29°41' W 094°59'3 6.1
2017-Oct-17 15:01N 29°44' W 095°02'3 6.3
2017-Oct-17 14:30N 29°46' W 095°05'1 1.2
2017-Oct-17 13:24N 29°46' W 095°06'0 0.0
2017-Oct-17 12:58N 29°46' W 095°06'0 0.0
2017-Oct-17 12:30N 29°46' W 095°06'0 0.3
2017-Oct-17 11:50N 29°46' W 095°06'0 0.0
2017-Oct-17 11:31N 29°46' W 095°06'0 0.0
2017-Oct-17 10:57N 29°46' W 095°06'0 0.0
2017-Oct-17 10:28N 29°46' W 095°06'0 0.0
2017-Oct-17 10:00N 29°46' W 095°06'0 0.0
2017-Oct-17 09:27N 29°46' W 095°06'0 0.0
2017-Oct-17 08:59N 29°46' W 095°06'0 0.0
2017-Oct-17 08:30N 29°46' W 095°06'0 0.0
2017-Oct-17 08:00N 29°46' W 095°06'0 0.0
2017-Oct-17 07:25N 29°46' W 095°06'0 0.0
2017-Oct-17 06:52N 29°46' W 095°06'0 0.0
2017-Oct-17 06:30N 29°46' W 095°06'0 0.0
2017-Oct-17 05:59N 29°46' W 095°06'0 0.0
2017-Oct-17 05:27N 29°46' W 095°06'0 0.0
2017-Oct-17 04:58N 29°46' W 095°06'0 0.0
2017-Oct-17 04:30N 29°46' W 095°06'0 0.1
2017-Oct-17 03:49N 29°46' W 095°06'1 1.2
2017-Oct-17 03:10N 29°46' W 095°05'1 6.5
2017-Oct-17 02:57N 29°45' W 095°06'3 7.1
2017-Oct-17 02:30N 29°45' W 095°10'3 7.0
2017-Oct-17 02:00N 29°44' W 095°14'3 5.0
2017-Oct-17 01:30N 29°43' W 095°16'0 0.0
2017-Oct-17 00:58N 29°43' W 095°16'0 0.0
2017-Oct-17 00:29N 29°43' W 095°16'0 0.0
2017-Oct-16 23:59N 29°43' W 095°16'0 0.7
2017-Oct-16 23:30N 29°44' W 095°17'0 0.6
2017-Oct-16 23:00N 29°43' W 095°16'0 0.0
2017-Oct-16 22:30N 29°43' W 095°16'0 0.0
2017-Oct-16 22:00N 29°43' W 095°16'0 0.6
2017-Oct-16 21:30N 29°44' W 095°16'  
2017-Oct-12 15:11N 29°43' W 095°16'0 0.0
2017-Oct-12 14:45N 29°43' W 095°16'0 0.0
2017-Oct-12 13:02N 29°43' W 095°16'0 0.0
2017-Oct-12 12:34N 29°43' W 095°16'0 0.0
2017-Oct-12 11:24N 29°43' W 095°16'0 0.0
2017-Oct-12 11:00N 29°43' W 095°16'0 0.0
2017-Oct-12 10:28N 29°43' W 095°16'0 0.0
2017-Oct-12 09:53N 29°43' W 095°16'0 0.0
2017-Oct-12 08:47N 29°43' W 095°16'0 0.0
2017-Oct-12 08:18N 29°43' W 095°16'0 0.0
2017-Oct-12 07:53N 29°43' W 095°16'0 0.0
2017-Oct-12 07:30N 29°43' W 095°16'0 0.0
2017-Oct-12 06:57N 29°43' W 095°16'0 0.0
2017-Oct-12 06:30N 29°43' W 095°16'0 0.0
2017-Oct-12 06:00N 29°43' W 095°16'0 0.0
2017-Oct-12 05:29N 29°43' W 095°16'0 0.0
2017-Oct-12 05:00N 29°43' W 095°16'0 0.0
2017-Oct-12 04:30N 29°43' W 095°16'0 0.0
2017-Oct-12 03:59N 29°43' W 095°16'0 0.0
2017-Oct-12 03:26N 29°43' W 095°16'0 0.0
2017-Oct-12 02:56N 29°43' W 095°16'0 0.0
2017-Oct-12 02:28N 29°43' W 095°16'0 0.0
2017-Oct-12 01:09N 29°43' W 095°16'0 0.0
2017-Oct-12 00:25N 29°43' W 095°16'0 0.0
2017-Oct-11 23:57N 29°43' W 095°16'0 0.0
2017-Oct-11 23:25N 29°43' W 095°16'0 0.0
2017-Oct-11 19:49N 29°43' W 095°16'0 0.0
2017-Oct-10 23:49N 29°43' W 095°16'0 0.0
2017-Oct-10 23:27N 29°43' W 095°16'0 0.1
2017-Oct-10 22:07N 29°43' W 095°16'0 0.0
2017-Oct-10 21:59N 29°43' W 095°16'0 0.0
2017-Oct-10 21:18N 29°43' W 095°16'0 0.0
2017-Oct-10 20:47N 29°43' W 095°16'0 0.0
2017-Oct-10 20:30N 29°43' W 095°16'0 0.0
2017-Oct-10 19:42N 29°43' W 095°16'0 0.0
2017-Oct-10 19:24N 29°43' W 095°16'0 0.0
2017-Oct-10 18:48N 29°43' W 095°16'0 0.0
2017-Oct-10 18:25N 29°43' W 095°16'0 0.0
2017-Oct-10 17:08N 29°43' W 095°16'0 0.0
2017-Oct-10 17:00N 29°43' W 095°16'0 0.0
2017-Oct-10 16:27N 29°43' W 095°16'0 0.0
2017-Oct-10 16:01N 29°43' W 095°16'0 0.0
2017-Oct-10 15:30N 29°43' W 095°16'  
Track history (hours):
 
Tides and Currents Weather Stations Pressure Air Temp Water Temp Dewpoint Dewpoint Depression Visibility Wind Speed Wind Dir Waves Ship Positions

MiSS Bobbie Fugit

Owner: American Commercial Lines LLC, Jeffersonville, IN. More information available from US FCC via Universal Licensing System and Coast Guard Vessel Documentation Center.

Last reported at 2017-Oct-20 14:53 UTC. Time now 2017-Oct-20 17:52 UTC.
Position N 29°46' W 095°06'.

Length 27 m; draft 3.3 m.

Type: Towing. MMSI: 367057310.

Date/timePositionNaut miles runAvg speedWind from/ knotsBaromVisibWave heightAir tempDewpointWater temp
2017-Oct-20 14:53N 29°46' W 095°06'3 0.4
2017-Oct-20 07:34N 29°44' W 095°03'1 6.3
2017-Oct-20 07:26N 29°44' W 095°02'2 5.0
2017-Oct-20 07:00N 29°42' W 095°01'3 5.9
2017-Oct-20 06:30N 29°40' W 094°58'3 6.6
2017-Oct-20 06:00N 29°37' W 094°57'3 6.5
2017-Oct-20 05:30N 29°34' W 094°55'60 3.8
2017-Oct-19 13:52N 29°57' W 093°52'0 0.2
2017-Oct-19 13:30N 29°57' W 093°52'0 0.0
2017-Oct-19 12:57N 29°57' W 093°52'0 0.0
2017-Oct-19 12:29N 29°57' W 093°52'15 2.7
2017-Oct-19 07:01N 30°04' W 093°37'0 4.6
2017-Oct-19 06:58N 30°04' W 093°36'2 4.5
2017-Oct-19 06:31N 30°04' W 093°34'2 4.5
2017-Oct-19 06:01N 30°04' W 093°31'2 4.4
2017-Oct-19 05:31N 30°04' W 093°29'2 4.3
2017-Oct-19 05:00N 30°04' W 093°26'2 4.3
2017-Oct-19 04:30N 30°04' W 093°24'2 3.8
2017-Oct-19 04:00N 30°04' W 093°22'2 3.6
2017-Oct-19 03:30N 30°05' W 093°20'2 3.5
2017-Oct-19 03:01N 30°06' W 093°19'0 0.1
2017-Oct-19 02:31N 30°06' W 093°19'0 0.1
2017-Oct-19 02:01N 30°06' W 093°19'0 0.1
2017-Oct-19 01:30N 30°06' W 093°19'0 0.1
2017-Oct-19 01:01N 30°06' W 093°19'0 0.1
2017-Oct-19 00:31N 30°06' W 093°19'0 0.0
2017-Oct-19 00:01N 30°06' W 093°19'0 0.0
2017-Oct-18 23:31N 30°06' W 093°19'0 0.1
2017-Oct-18 23:01N 30°06' W 093°19'0 0.1
2017-Oct-18 22:31N 30°06' W 093°19'0 0.0
2017-Oct-18 22:00N 30°06' W 093°19'0 0.0
2017-Oct-18 21:31N 30°06' W 093°19'0 0.0
2017-Oct-18 21:01N 30°06' W 093°19'0 0.0
2017-Oct-18 20:31N 30°06' W 093°19'0 0.0
2017-Oct-18 20:01N 30°06' W 093°19'0 0.0
2017-Oct-18 19:31N 30°06' W 093°19'0 0.0
2017-Oct-18 19:01N 30°06' W 093°19'0 0.0
2017-Oct-18 18:31N 30°06' W 093°19'0 0.0
2017-Oct-18 18:01N 30°06' W 093°19'0 0.0
2017-Oct-18 17:31N 30°06' W 093°19'0 0.0
2017-Oct-18 17:00N 30°06' W 093°19'0 0.0
2017-Oct-18 16:31N 30°06' W 093°19'0 0.0
2017-Oct-18 16:00N 30°06' W 093°19'0 0.3
2017-Oct-18 15:31N 30°06' W 093°19'2 3.5
2017-Oct-18 15:01N 30°05' W 093°20'3 3.1
2017-Oct-18 14:01N 30°04' W 093°24'2 4.7
2017-Oct-18 13:30N 30°04' W 093°26'2 4.6
2017-Oct-18 13:01N 30°04' W 093°29'2 4.8
2017-Oct-18 12:30N 30°04' W 093°32'2 4.7
2017-Oct-18 12:00N 30°04' W 093°35'8 5.1
2017-Oct-18 10:22N 30°02' W 093°44'68 4.0
2017-Oct-17 17:17N 29°31' W 094°53'2 6.6
2017-Oct-17 17:00N 29°32' W 094°54'3 6.8
2017-Oct-17 16:31N 29°35' W 094°56'3 6.7
2017-Oct-17 16:01N 29°38' W 094°58'3 6.7
2017-Oct-17 15:31N 29°41' W 094°59'3 6.1
2017-Oct-17 15:01N 29°44' W 095°02'3 6.3
2017-Oct-17 14:30N 29°46' W 095°05'1 1.2
2017-Oct-17 13:24N 29°46' W 095°06'0 0.0
2017-Oct-17 12:58N 29°46' W 095°06'0 0.0
2017-Oct-17 12:30N 29°46' W 095°06'0 0.3
2017-Oct-17 11:50N 29°46' W 095°06'0 0.0
2017-Oct-17 11:31N 29°46' W 095°06'0 0.0
2017-Oct-17 10:57N 29°46' W 095°06'0 0.0
2017-Oct-17 10:28N 29°46' W 095°06'0 0.0
2017-Oct-17 10:00N 29°46' W 095°06'0 0.0
2017-Oct-17 09:27N 29°46' W 095°06'0 0.0
2017-Oct-17 08:59N 29°46' W 095°06'0 0.0
2017-Oct-17 08:30N 29°46' W 095°06'0 0.0
2017-Oct-17 08:00N 29°46' W 095°06'0 0.0
2017-Oct-17 07:25N 29°46' W 095°06'0 0.0
2017-Oct-17 06:52N 29°46' W 095°06'0 0.0
2017-Oct-17 06:30N 29°46' W 095°06'0 0.0
2017-Oct-17 05:59N 29°46' W 095°06'0 0.0
2017-Oct-17 05:27N 29°46' W 095°06'0 0.0
2017-Oct-17 04:58N 29°46' W 095°06'0 0.0
2017-Oct-17 04:30N 29°46' W 095°06'0 0.1
2017-Oct-17 03:49N 29°46' W 095°06'1 1.2
2017-Oct-17 03:10N 29°46' W 095°05'1 6.5
2017-Oct-17 02:57N 29°45' W 095°06'3 7.1
2017-Oct-17 02:30N 29°45' W 095°10'3 7.0
2017-Oct-17 02:00N 29°44' W 095°14'3 5.0
2017-Oct-17 01:30N 29°43' W 095°16'0 0.0
2017-Oct-17 00:58N 29°43' W 095°16'0 0.0
2017-Oct-17 00:29N 29°43' W 095°16'0 0.0
2017-Oct-16 23:59N 29°43' W 095°16'0 0.7
2017-Oct-16 23:30N 29°44' W 095°17'0 0.6
2017-Oct-16 23:00N 29°43' W 095°16'0 0.0
2017-Oct-16 22:30N 29°43' W 095°16'0 0.0
2017-Oct-16 22:00N 29°43' W 095°16'0 0.6
2017-Oct-16 21:30N 29°44' W 095°16'  
2017-Oct-12 15:11N 29°43' W 095°16'0 0.0
2017-Oct-12 14:45N 29°43' W 095°16'0 0.0
2017-Oct-12 13:02N 29°43' W 095°16'0 0.0
2017-Oct-12 12:34N 29°43' W 095°16'0 0.0
2017-Oct-12 11:24N 29°43' W 095°16'0 0.0
2017-Oct-12 11:00N 29°43' W 095°16'0 0.0
2017-Oct-12 10:28N 29°43' W 095°16'0 0.0
2017-Oct-12 09:53N 29°43' W 095°16'0 0.0
2017-Oct-12 08:47N 29°43' W 095°16'0 0.0
2017-Oct-12 08:18N 29°43' W 095°16'0 0.0
2017-Oct-12 07:53N 29°43' W 095°16'0 0.0
2017-Oct-12 07:30N 29°43' W 095°16'0 0.0
2017-Oct-12 06:57N 29°43' W 095°16'0 0.0
2017-Oct-12 06:30N 29°43' W 095°16'0 0.0
2017-Oct-12 06:00N 29°43' W 095°16'0 0.0
2017-Oct-12 05:29N 29°43' W 095°16'0 0.0
2017-Oct-12 05:00N 29°43' W 095°16'0 0.0
2017-Oct-12 04:30N 29°43' W 095°16'0 0.0
2017-Oct-12 03:59N 29°43' W 095°16'0 0.0
2017-Oct-12 03:26N 29°43' W 095°16'0 0.0
2017-Oct-12 02:56N 29°43' W 095°16'0 0.0
2017-Oct-12 02:28N 29°43' W 095°16'0 0.0
2017-Oct-12 01:09N 29°43' W 095°16'0 0.0
2017-Oct-12 00:25N 29°43' W 095°16'0 0.0
2017-Oct-11 23:57N 29°43' W 095°16'0 0.0
2017-Oct-11 23:25N 29°43' W 095°16'0 0.0
2017-Oct-11 19:49N 29°43' W 095°16'0 0.0
2017-Oct-10 23:49N 29°43' W 095°16'0 0.0
2017-Oct-10 23:27N 29°43' W 095°16'0 0.1
2017-Oct-10 22:07N 29°43' W 095°16'0 0.0
2017-Oct-10 21:59N 29°43' W 095°16'0 0.0
2017-Oct-10 21:18N 29°43' W 095°16'0 0.0
2017-Oct-10 20:47N 29°43' W 095°16'0 0.0
2017-Oct-10 20:30N 29°43' W 095°16'0 0.0
2017-Oct-10 19:42N 29°43' W 095°16'0 0.0
2017-Oct-10 19:24N 29°43' W 095°16'0 0.0
2017-Oct-10 18:48N 29°43' W 095°16'0 0.0
2017-Oct-10 18:25N 29°43' W 095°16'0 0.0
2017-Oct-10 17:08N 29°43' W 095°16'0 0.0
2017-Oct-10 17:00N 29°43' W 095°16'0 0.0
2017-Oct-10 16:27N 29°43' W 095°16'0 0.0
2017-Oct-10 16:01N 29°43' W 095°16'0 0.0
2017-Oct-10 15:30N 29°43' W 095°16'  

Dump ship's entire track history